sensor_id;sensor_type;location;lat;lon;timestamp;pressure;altitude;pressure_sealevel;temperature;humidity
30421;BME280;17218;54.070;10.012;2022-11-20T00:00:30;100939.66;;;2.91;100.00
30421;BME280;17218;54.070;10.012;2022-11-20T00:02:58;100945.69;;;2.93;100.00
30421;BME280;17218;54.070;10.012;2022-11-20T00:05:25;100950.66;;;2.86;100.00
30421;BME280;17218;54.070;10.012;2022-11-20T00:07:51;100952.44;;;2.89;100.00
30421;BME280;17218;54.070;10.012;2022-11-20T00:10:18;100945.59;;;2.88;100.00
30421;BME280;17218;54.070;10.012;2022-11-20T00:12:44;100946.28;;;2.82;100.00
30421;BME280;17218;54.070;10.012;2022-11-20T00:15:11;100945.38;;;2.80;100.00
30421;BME280;17218;54.070;10.012;2022-11-20T00:17:38;100953.00;;;2.79;100.00
30421;BME280;17218;54.070;10.012;2022-11-20T00:20:07;100944.25;;;2.72;100.00
30421;BME280;17218;54.070;10.012;2022-11-20T00:22:34;100941.78;;;2.73;100.00
30421;BME280;17218;54.070;10.012;2022-11-20T00:25:01;100952.91;;;2.76;100.00
30421;BME280;17218;54.070;10.012;2022-11-20T00:27:28;100951.22;;;2.76;100.00
30421;BME280;17218;54.070;10.012;2022-11-20T00:29:54;100952.13;;;2.78;100.00
30421;BME280;17218;54.070;10.012;2022-11-20T00:32:21;100947.00;;;2.78;100.00
30421;BME280;17218;54.070;10.012;2022-11-20T00:34:47;100935.78;;;2.73;100.00
30421;BME280;17218;54.070;10.012;2022-11-20T00:37:15;100940.03;;;2.72;100.00
30421;BME280;17218;54.070;10.012;2022-11-20T00:39:42;100939.28;;;2.77;100.00
30421;BME280;17218;54.070;10.012;2022-11-20T00:42:09;100937.75;;;2.83;100.00
30421;BME280;17218;54.070;10.012;2022-11-20T00:44:36;100929.16;;;2.81;100.00
30421;BME280;17218;54.070;10.012;2022-11-20T00:47:02;100920.72;;;2.84;100.00
30421;BME280;17218;54.070;10.012;2022-11-20T00:49:29;100925.81;;;2.82;100.00
30421;BME280;17218;54.070;10.012;2022-11-20T00:51:55;100935.16;;;2.82;100.00
30421;BME280;17218;54.070;10.012;2022-11-20T00:54:23;100927.38;;;2.77;100.00
30421;BME280;17218;54.070;10.012;2022-11-20T00:56:52;100925.72;;;2.79;100.00
30421;BME280;17218;54.070;10.012;2022-11-20T00:59:19;100927.56;;;2.85;100.00
30421;BME280;17218;54.070;10.012;2022-11-20T01:01:45;100925.00;;;2.85;100.00
30421;BME280;17218;54.070;10.012;2022-11-20T01:04:12;100927.50;;;2.82;100.00
30421;BME280;17218;54.070;10.012;2022-11-20T01:06:39;100930.09;;;2.83;100.00
30421;BME280;17218;54.070;10.012;2022-11-20T01:09:08;100925.84;;;2.84;100.00
30421;BME280;17218;54.070;10.012;2022-11-20T01:11:38;100930.97;;;2.84;100.00
30421;BME280;17218;54.070;10.012;2022-11-20T01:14:07;100923.31;;;2.85;100.00
30421;BME280;17218;54.070;10.012;2022-11-20T01:16:37;100937.59;;;2.77;100.00
30421;BME280;17218;54.070;10.012;2022-11-20T01:19:06;100923.88;;;2.73;100.00
30421;BME280;17218;54.070;10.012;2022-11-20T01:21:35;100919.44;;;2.68;100.00
30421;BME280;17218;54.070;10.012;2022-11-20T01:24:02;100921.88;;;2.65;100.00
30421;BME280;17218;54.070;10.012;2022-11-20T01:26:30;100915.25;;;2.70;100.00
30421;BME280;17218;54.070;10.012;2022-11-20T01:29:00;100923.78;;;2.72;100.00
30421;BME280;17218;54.070;10.012;2022-11-20T01:31:29;100907.56;;;2.70;100.00
30421;BME280;17218;54.070;10.012;2022-11-20T01:33:58;100914.31;;;2.68;100.00
30421;BME280;17218;54.070;10.012;2022-11-20T01:36:27;100910.81;;;2.64;100.00
30421;BME280;17218;54.070;10.012;2022-11-20T01:38:55;100915.09;;;2.65;100.00
30421;BME280;17218;54.070;10.012;2022-11-20T01:41:24;100908.28;;;2.66;100.00
30421;BME280;17218;54.070;10.012;2022-11-20T01:44:11;100905.69;;;2.64;100.00
30421;BME280;17218;54.070;10.012;2022-11-20T01:46:42;100889.50;;;2.65;100.00
30421;BME280;17218;54.070;10.012;2022-11-20T01:49:18;100904.59;;;2.56;100.00
30421;BME280;17218;54.070;10.012;2022-11-20T01:51:51;100901.00;;;2.49;100.00
30421;BME280;17218;54.070;10.012;2022-11-20T01:54:22;100894.13;;;2.48;100.00
30421;BME280;17218;54.070;10.012;2022-11-20T01:56:51;100890.78;;;2.49;100.00
30421;BME280;17218;54.070;10.012;2022-11-20T01:59:23;100892.31;;;2.42;100.00
30421;BME280;17218;54.070;10.012;2022-11-20T02:01:52;100882.97;;;2.44;100.00
30421;BME280;17218;54.070;10.012;2022-11-20T02:04:19;100889.09;;;2.49;100.00
30421;BME280;17218;54.070;10.012;2022-11-20T02:06:49;100883.09;;;2.49;100.00
30421;BME280;17218;54.070;10.012;2022-11-20T02:09:16;100873.88;;;2.54;100.00
30421;BME280;17218;54.070;10.012;2022-11-20T02:11:43;100884.16;;;2.57;100.00
30421;BME280;17218;54.070;10.012;2022-11-20T02:14:10;100881.56;;;2.56;100.00
30421;BME280;17218;54.070;10.012;2022-11-20T02:16:41;100875.69;;;2.58;100.00
30421;BME280;17218;54.070;10.012;2022-11-20T02:19:17;100879.97;;;2.59;100.00
30421;BME280;17218;54.070;10.012;2022-11-20T02:21:51;100869.63;;;2.55;100.00
30421;BME280;17218;54.070;10.012;2022-11-20T02:24:24;100880.66;;;2.54;100.00
30421;BME280;17218;54.070;10.012;2022-11-20T02:26:53;100872.03;;;2.50;100.00
30421;BME280;17218;54.070;10.012;2022-11-20T02:29:24;100863.38;;;2.45;100.00
30421;BME280;17218;54.070;10.012;2022-11-20T02:31:54;100856.94;;;2.27;100.00
30421;BME280;17218;54.070;10.012;2022-11-20T02:34:21;100861.13;;;2.25;100.00
30421;BME280;17218;54.070;10.012;2022-11-20T02:36:49;100863.94;;;2.34;100.00
30421;BME280;17218;54.070;10.012;2022-11-20T02:39:18;100864.19;;;2.42;100.00
30421;BME280;17218;54.070;10.012;2022-11-20T02:41:47;100852.06;;;2.36;100.00
30421;BME280;17218;54.070;10.012;2022-11-20T02:44:13;100867.09;;;2.25;100.00
30421;BME280;17218;54.070;10.012;2022-11-20T02:46:40;100857.66;;;2.23;100.00
30421;BME280;17218;54.070;10.012;2022-11-20T02:49:07;100856.72;;;2.21;100.00
30421;BME280;17218;54.070;10.012;2022-11-20T02:51:33;100858.69;;;2.30;100.00
30421;BME280;17218;54.070;10.012;2022-11-20T02:54:00;100864.69;;;2.30;100.00
30421;BME280;17218;54.070;10.012;2022-11-20T02:56:27;100862.75;;;2.23;100.00
30421;BME280;17218;54.070;10.012;2022-11-20T02:58:55;100854.97;;;2.18;100.00
30421;BME280;17218;54.070;10.012;2022-11-20T03:01:21;100862.72;;;2.21;100.00
30421;BME280;17218;54.070;10.012;2022-11-20T03:03:48;100862.75;;;2.23;100.00
30421;BME280;17218;54.070;10.012;2022-11-20T03:06:15;100853.56;;;2.30;100.00
30421;BME280;17218;54.070;10.012;2022-11-20T03:08:42;100859.47;;;2.27;100.00
30421;BME280;17218;54.070;10.012;2022-11-20T03:11:09;100864.56;;;2.25;100.00
30421;BME280;17218;54.070;10.012;2022-11-20T03:13:35;100852.56;;;2.24;100.00
30421;BME280;17218;54.070;10.012;2022-11-20T03:16:08;100860.31;;;2.28;100.00
30421;BME280;17218;54.070;10.012;2022-11-20T03:18:35;100846.69;;;2.27;100.00
30421;BME280;17218;54.070;10.012;2022-11-20T03:21:02;100864.59;;;2.27;100.00
30421;BME280;17218;54.070;10.012;2022-11-20T03:23:30;100856.13;;;2.30;100.00
30421;BME280;17218;54.070;10.012;2022-11-20T03:26:11;100846.06;;;2.34;100.00
30421;BME280;17218;54.070;10.012;2022-11-20T03:28:38;100849.16;;;2.24;100.00
30421;BME280;17218;54.070;10.012;2022-11-20T03:31:08;100850.59;;;2.14;100.00
30421;BME280;17218;54.070;10.012;2022-11-20T03:33:35;100847.22;;;2.17;100.00
30421;BME280;17218;54.070;10.012;2022-11-20T03:36:03;100846.41;;;2.16;100.00
30421;BME280;17218;54.070;10.012;2022-11-20T03:38:30;100842.13;;;2.17;100.00
30421;BME280;17218;54.070;10.012;2022-11-20T03:41:01;100830.38;;;2.22;100.00
30421;BME280;17218;54.070;10.012;2022-11-20T03:43:28;100830.41;;;2.23;100.00
30421;BME280;17218;54.070;10.012;2022-11-20T03:45:55;100829.25;;;2.13;100.00
30421;BME280;17218;54.070;10.012;2022-11-20T03:48:23;100831.69;;;2.09;100.00
30421;BME280;17218;54.070;10.012;2022-11-20T03:50:50;100827.16;;;2.00;100.00
30421;BME280;17218;54.070;10.012;2022-11-20T03:53:19;100832.28;;;2.00;100.00
30421;BME280;17218;54.070;10.012;2022-11-20T03:55:50;100823.66;;;1.96;100.00
30421;BME280;17218;54.070;10.012;2022-11-20T03:58:17;100826.09;;;1.92;100.00
30421;BME280;17218;54.070;10.012;2022-11-20T04:00:44;100819.38;;;1.95;100.00
30421;BME280;17218;54.070;10.012;2022-11-20T04:03:10;100829.03;;;2.06;100.00
30421;BME280;17218;54.070;10.012;2022-11-20T04:05:38;100822.31;;;2.09;100.00
30421;BME280;17218;54.070;10.012;2022-11-20T04:08:05;100819.75;;;2.09;100.00
30421;BME280;17218;54.070;10.012;2022-11-20T04:10:32;100814.38;;;2.00;100.00
30421;BME280;17218;54.070;10.012;2022-11-20T04:12:58;100822.00;;;1.98;100.00
30421;BME280;17218;54.070;10.012;2022-11-20T04:15:25;100817.84;;;2.02;100.00
30421;BME280;17218;54.070;10.012;2022-11-20T04:17:51;100820.13;;;1.93;100.00
30421;BME280;17218;54.070;10.012;2022-11-20T04:20:18;100813.53;;;1.99;100.00
30421;BME280;17218;54.070;10.012;2022-11-20T04:22:46;100808.31;;;1.96;100.00
30421;BME280;17218;54.070;10.012;2022-11-20T04:25:13;100801.59;;;2.00;100.00
30421;BME280;17218;54.070;10.012;2022-11-20T04:27:39;100811.16;;;2.06;100.00
30421;BME280;17218;54.070;10.012;2022-11-20T04:30:06;100810.47;;;2.11;100.00
30421;BME280;17218;54.070;10.012;2022-11-20T04:32:33;100808.75;;;2.10;100.00
30421;BME280;17218;54.070;10.012;2022-11-20T04:35:00;100811.34;;;2.12;100.00
30421;BME280;17218;54.070;10.012;2022-11-20T04:37:26;100805.91;;;2.01;100.00
30421;BME280;17218;54.070;10.012;2022-11-20T04:39:54;100804.09;;;1.97;100.00
30421;BME280;17218;54.070;10.012;2022-11-20T04:42:21;100815.03;;;1.93;100.00
30421;BME280;17218;54.070;10.012;2022-11-20T04:44:57;100807.38;;;1.93;100.00
30421;BME280;17218;54.070;10.012;2022-11-20T04:47:23;100808.19;;;1.92;100.00
30421;BME280;17218;54.070;10.012;2022-11-20T04:49:50;100805.63;;;1.92;100.00
30421;BME280;17218;54.070;10.012;2022-11-20T04:52:16;100803.13;;;1.93;100.00
30421;BME280;17218;54.070;10.012;2022-11-20T04:54:43;100806.50;;;1.92;100.00
30421;BME280;17218;54.070;10.012;2022-11-20T04:57:12;100807.16;;;1.85;100.00
30421;BME280;17218;54.070;10.012;2022-11-20T04:59:39;100809.84;;;1.89;100.00
30421;BME280;17218;54.070;10.012;2022-11-20T05:02:06;100812.38;;;1.89;100.00
30421;BME280;17218;54.070;10.012;2022-11-20T05:04:32;100799.78;;;1.94;100.00
30421;BME280;17218;54.070;10.012;2022-11-20T05:06:59;100809.88;;;1.91;100.00
30421;BME280;17218;54.070;10.012;2022-11-20T05:09:25;100785.06;;;1.87;100.00
30421;BME280;17218;54.070;10.012;2022-11-20T05:11:52;100790.31;;;1.92;100.00
30421;BME280;17218;54.070;10.012;2022-11-20T05:14:20;100796.38;;;1.95;100.00
30421;BME280;17218;54.070;10.012;2022-11-20T05:16:47;100794.75;;;1.97;100.00
30421;BME280;17218;54.070;10.012;2022-11-20T05:19:13;100788.06;;;2.02;100.00
30421;BME280;17218;54.070;10.012;2022-11-20T05:21:40;100789.06;;;2.08;100.00
30421;BME280;17218;54.070;10.012;2022-11-20T05:24:07;100790.75;;;2.07;100.00
30421;BME280;17218;54.070;10.012;2022-11-20T05:26:33;100789.97;;;2.10;100.00
30421;BME280;17218;54.070;10.012;2022-11-20T05:29:00;100791.84;;;2.16;100.00
30421;BME280;17218;54.070;10.012;2022-11-20T05:31:28;100799.59;;;2.19;100.00
30421;BME280;17218;54.070;10.012;2022-11-20T05:33:56;100787.69;;;2.19;100.00
30421;BME280;17218;54.070;10.012;2022-11-20T05:36:23;100789.34;;;2.19;100.00
30421;BME280;17218;54.070;10.012;2022-11-20T05:38:49;100780.78;;;2.17;100.00
30421;BME280;17218;54.070;10.012;2022-11-20T05:41:18;100784.09;;;2.12;100.00
30421;BME280;17218;54.070;10.012;2022-11-20T05:43:45;100773.81;;;2.11;100.00
30421;BME280;17218;54.070;10.012;2022-11-20T05:46:14;100780.53;;;2.07;100.00
30421;BME280;17218;54.070;10.012;2022-11-20T05:48:45;100778.09;;;2.12;100.00
30421;BME280;17218;54.070;10.012;2022-11-20T05:51:14;100781.63;;;2.16;100.00
30421;BME280;17218;54.070;10.012;2022-11-20T05:53:41;100767.19;;;2.18;100.00
30421;BME280;17218;54.070;10.012;2022-11-20T05:56:10;100773.22;;;2.20;100.00
30421;BME280;17218;54.070;10.012;2022-11-20T05:58:38;100764.69;;;2.19;100.00
30421;BME280;17218;54.070;10.012;2022-11-20T06:01:06;100769.75;;;2.18;100.00
30421;BME280;17218;54.070;10.012;2022-11-20T06:03:33;100767.19;;;2.18;100.00
30421;BME280;17218;54.070;10.012;2022-11-20T06:06:02;100775.78;;;2.20;100.00
30421;BME280;17218;54.070;10.012;2022-11-20T06:08:29;100763.91;;;2.22;100.00
30421;BME280;17218;54.070;10.012;2022-11-20T06:10:56;100773.34;;;2.24;100.00
30421;BME280;17218;54.070;10.012;2022-11-20T06:13:22;100764.84;;;2.25;100.00
30421;BME280;17218;54.070;10.012;2022-11-20T06:15:49;100764.78;;;2.24;100.00
30421;BME280;17218;54.070;10.012;2022-11-20T06:18:16;100770.78;;;2.24;100.00
30421;BME280;17218;54.070;10.012;2022-11-20T06:20:42;100773.34;;;2.24;100.00
30421;BME280;17218;54.070;10.012;2022-11-20T06:23:11;100772.53;;;2.25;100.00
30421;BME280;17218;54.070;10.012;2022-11-20T06:25:38;100769.09;;;2.25;100.00
30421;BME280;17218;54.070;10.012;2022-11-20T06:28:04;100762.34;;;2.27;100.00
30421;BME280;17218;54.070;10.012;2022-11-20T06:30:31;100774.22;;;2.25;100.00
30421;BME280;17218;54.070;10.012;2022-11-20T06:32:58;100764.84;;;2.25;100.00
30421;BME280;17218;54.070;10.012;2022-11-20T06:35:24;100763.97;;;2.25;100.00
30421;BME280;17218;54.070;10.012;2022-11-20T06:37:51;100762.22;;;2.24;100.00
30421;BME280;17218;54.070;10.012;2022-11-20T06:40:19;100768.19;;;2.23;100.00
30421;BME280;17218;54.070;10.012;2022-11-20T06:42:45;100766.34;;;2.19;100.00
30421;BME280;17218;54.070;10.012;2022-11-20T06:45:12;100766.31;;;2.17;100.00
30421;BME280;17218;54.070;10.012;2022-11-20T06:47:39;100756.97;;;2.18;100.00
30421;BME280;17218;54.070;10.012;2022-11-20T06:50:06;100769.66;;;2.14;100.00
30421;BME280;17218;54.070;10.012;2022-11-20T06:52:32;100759.53;;;2.18;100.00
30421;BME280;17218;54.070;10.012;2022-11-20T06:54:59;100757.00;;;2.19;100.00
30421;BME280;17218;54.070;10.012;2022-11-20T06:57:27;100751.06;;;2.20;100.00
30421;BME280;17218;54.070;10.012;2022-11-20T06:59:54;100748.50;;;2.20;100.00
30421;BME280;17218;54.070;10.012;2022-11-20T07:02:20;100756.16;;;2.20;100.00
30421;BME280;17218;54.070;10.012;2022-11-20T07:04:47;100754.44;;;2.19;100.00
30421;BME280;17218;54.070;10.012;2022-11-20T07:07:13;100750.25;;;2.21;100.00
30421;BME280;17218;54.070;10.012;2022-11-20T07:09:40;100752.81;;;2.21;100.00
30421;BME280;17218;54.070;10.012;2022-11-20T07:12:06;100751.03;;;2.19;100.00
30421;BME280;17218;54.070;10.012;2022-11-20T07:14:34;100756.13;;;2.19;100.00
30421;BME280;17218;54.070;10.012;2022-11-20T07:17:01;100754.34;;;2.14;100.00
30421;BME280;17218;54.070;10.012;2022-11-20T07:19:28;100752.56;;;2.12;100.00
30421;BME280;17218;54.070;10.012;2022-11-20T07:21:54;100752.50;;;2.10;100.00
30421;BME280;17218;54.070;10.012;2022-11-20T07:24:21;100755.06;;;2.10;100.00
30421;BME280;17218;54.070;10.012;2022-11-20T07:26:48;100754.91;;;2.06;100.00
30421;BME280;17218;54.070;10.012;2022-11-20T07:29:15;100755.69;;;2.01;100.00
30421;BME280;17218;54.070;10.012;2022-11-20T07:31:43;100752.88;;;1.92;100.00
30421;BME280;17218;54.070;10.012;2022-11-20T07:34:09;100762.06;;;1.87;100.00
30421;BME280;17218;54.070;10.012;2022-11-20T07:36:36;100755.28;;;1.87;100.00
30421;BME280;17218;54.070;10.012;2022-11-20T07:39:03;100762.94;;;1.87;100.00
30421;BME280;17218;54.070;10.012;2022-11-20T07:41:29;100757.06;;;1.90;100.00
30421;BME280;17218;54.070;10.012;2022-11-20T07:43:56;100755.28;;;1.87;100.00
30421;BME280;17218;54.070;10.012;2022-11-20T07:46:23;100773.06;;;1.84;100.00
30421;BME280;17218;54.070;10.012;2022-11-20T07:48:51;100760.31;;;1.84;100.00
30421;BME280;17218;54.070;10.012;2022-11-20T07:51:17;100750.88;;;1.83;100.00
30421;BME280;17218;54.070;10.012;2022-11-20T07:53:44;100757.66;;;1.81;100.00
30421;BME280;17218;54.070;10.012;2022-11-20T07:56:10;100745.56;;;1.75;100.00
30421;BME280;17218;54.070;10.012;2022-11-20T07:58:39;100759.19;;;1.76;100.00
30421;BME280;17218;54.070;10.012;2022-11-20T08:01:06;100763.53;;;1.78;100.00
30421;BME280;17218;54.070;10.012;2022-11-20T08:03:33;100752.56;;;1.81;100.00
30421;BME280;17218;54.070;10.012;2022-11-20T08:06:04;100750.66;;;1.74;100.00
30421;BME280;17218;54.070;10.012;2022-11-20T08:08:31;100754.75;;;1.70;100.00
30421;BME280;17218;54.070;10.012;2022-11-20T08:10:58;100755.56;;;1.67;100.00
30421;BME280;17218;54.070;10.012;2022-11-20T08:13:46;100764.81;;;1.64;100.00
30421;BME280;17218;54.070;10.012;2022-11-20T08:16:30;100761.16;;;1.55;100.00
30421;BME280;17218;54.070;10.012;2022-11-20T08:18:56;100755.88;;;1.49;100.00
30421;BME280;17218;54.070;10.012;2022-11-20T08:21:24;100760.88;;;1.46;100.00
30421;BME280;17218;54.070;10.012;2022-11-20T08:23:51;100768.34;;;1.40;100.00
30421;BME280;17218;54.070;10.012;2022-11-20T08:26:17;100771.00;;;1.43;100.00
30421;BME280;17218;54.070;10.012;2022-11-20T08:28:44;100784.94;;;1.53;100.00
30421;BME280;17218;54.070;10.012;2022-11-20T08:31:11;100781.84;;;1.65;100.00
30421;BME280;17218;54.070;10.012;2022-11-20T08:33:37;100771.28;;;1.82;100.00
30421;BME280;17218;54.070;10.012;2022-11-20T08:36:05;100769.94;;;1.95;100.00
30421;BME280;17218;54.070;10.012;2022-11-20T08:38:33;100770.25;;;2.06;100.00
30421;BME280;17218;54.070;10.012;2022-11-20T08:41:01;100776.47;;;2.14;100.00
30421;BME280;17218;54.070;10.012;2022-11-20T08:43:45;100771.50;;;2.20;100.00
30421;BME280;17218;54.070;10.012;2022-11-20T08:46:12;100769.06;;;2.23;100.00
30421;BME280;17218;54.070;10.012;2022-11-20T08:48:39;100759.78;;;2.27;100.00
30421;BME280;17218;54.070;10.012;2022-11-20T08:51:06;100766.13;;;2.42;100.00
30421;BME280;17218;54.070;10.012;2022-11-20T08:53:34;100761.16;;;2.48;100.00
30421;BME280;17218;54.070;10.012;2022-11-20T08:56:01;100774.09;;;2.53;100.00
30421;BME280;17218;54.070;10.012;2022-11-20T08:58:27;100763.22;;;2.61;100.00
30421;BME280;17218;54.070;10.012;2022-11-20T09:00:54;100767.59;;;2.66;100.00
30421;BME280;17218;54.070;10.012;2022-11-20T09:03:20;100767.91;;;2.78;100.00
30421;BME280;17218;54.070;10.012;2022-11-20T09:05:47;100773.28;;;2.89;100.00
30421;BME280;17218;54.070;10.012;2022-11-20T09:08:14;100769.19;;;2.96;100.00
30421;BME280;17218;54.070;10.012;2022-11-20T09:10:42;100771.00;;;3.00;100.00
30421;BME280;17218;54.070;10.012;2022-11-20T09:13:08;100769.41;;;3.05;100.00
30421;BME280;17218;54.070;10.012;2022-11-20T09:15:35;100773.03;;;3.14;100.00
30421;BME280;17218;54.070;10.012;2022-11-20T09:18:03;100777.63;;;3.27;100.00
30421;BME280;17218;54.070;10.012;2022-11-20T09:20:30;100764.91;;;3.32;100.00
30421;BME280;17218;54.070;10.012;2022-11-20T09:22:57;100774.47;;;3.39;100.00
30421;BME280;17218;54.070;10.012;2022-11-20T09:25:24;100779.63;;;3.41;100.00
30421;BME280;17218;54.070;10.012;2022-11-20T09:27:56;100777.00;;;3.38;100.00
30421;BME280;17218;54.070;10.012;2022-11-20T09:30:22;100777.72;;;3.32;100.00
30421;BME280;17218;54.070;10.012;2022-11-20T09:32:49;100788.59;;;3.21;100.00
30421;BME280;17218;54.070;10.012;2022-11-20T09:35:16;100781.53;;;3.13;100.00
30421;BME280;17218;54.070;10.012;2022-11-20T09:37:43;100781.41;;;3.06;100.00
30421;BME280;17218;54.070;10.012;2022-11-20T09:40:19;100790.63;;;3.00;100.00
30421;BME280;17218;54.070;10.012;2022-11-20T09:42:51;100788.16;;;3.04;100.00
30421;BME280;17218;54.070;10.012;2022-11-20T09:45:37;100791.25;;;3.26;100.00
30421;BME280;17218;54.070;10.012;2022-11-20T09:48:18;100795.22;;;3.50;100.00
30421;BME280;17218;54.070;10.012;2022-11-20T09:50:52;100794.91;;;3.75;100.00
30421;BME280;17218;54.070;10.012;2022-11-20T09:53:29;100795.06;;;3.83;100.00
30421;BME280;17218;54.070;10.012;2022-11-20T09:55:59;100795.19;;;3.89;100.00
30421;BME280;17218;54.070;10.012;2022-11-20T09:58:32;100792.59;;;3.87;100.00
30421;BME280;17218;54.070;10.012;2022-11-20T10:01:07;100782.31;;;3.86;100.00
30421;BME280;17218;54.070;10.012;2022-11-20T10:03:40;100782.25;;;3.83;100.00
30421;BME280;17218;54.070;10.012;2022-11-20T10:06:13;100785.41;;;3.70;100.00
30421;BME280;17218;54.070;10.012;2022-11-20T10:08:45;100785.28;;;3.64;100.00
30421;BME280;17218;54.070;10.012;2022-11-20T10:11:20;100783.72;;;3.71;100.00
30421;BME280;17218;54.070;10.012;2022-11-20T10:14:00;100771.28;;;3.88;100.00
30421;BME280;17218;54.070;10.012;2022-11-20T10:16:39;100777.75;;;4.14;100.00
30421;BME280;17218;54.070;10.012;2022-11-20T10:19:22;100775.50;;;4.31;100.00
30421;BME280;17218;54.070;10.012;2022-11-20T10:22:00;100765.13;;;4.23;100.00
30421;BME280;17218;54.070;10.012;2022-11-20T10:24:37;100763.31;;;4.19;100.00
30421;BME280;17218;54.070;10.012;2022-11-20T10:27:21;100764.38;;;4.29;100.00
30421;BME280;17218;54.070;10.012;2022-11-20T10:30:00;100764.78;;;4.51;100.00
30421;BME280;17218;54.070;10.012;2022-11-20T10:32:32;100759.84;;;4.62;100.00
30421;BME280;17218;54.070;10.012;2022-11-20T10:35:03;100755.59;;;4.64;100.00
30421;BME280;17218;54.070;10.012;2022-11-20T10:37:32;100762.56;;;4.71;100.00
30421;BME280;17218;54.070;10.012;2022-11-20T10:40:05;100761.72;;;4.72;100.00
30421;BME280;17218;54.070;10.012;2022-11-20T10:42:37;100760.06;;;4.76;100.00
30421;BME280;17218;54.070;10.012;2022-11-20T10:45:13;100759.28;;;4.80;100.00
30421;BME280;17218;54.070;10.012;2022-11-20T10:47:43;100751.59;;;4.80;100.00
30421;BME280;17218;54.070;10.012;2022-11-20T10:50:16;100755.06;;;4.84;100.00
30421;BME280;17218;54.070;10.012;2022-11-20T10:52:52;100750.75;;;4.83;100.00
30421;BME280;17218;54.070;10.012;2022-11-20T10:55:28;100748.94;;;4.75;100.00
30421;BME280;17218;54.070;10.012;2022-11-20T10:58:03;100747.03;;;4.65;100.00
30421;BME280;17218;54.070;10.012;2022-11-20T11:00:32;100751.28;;;4.63;100.00
30421;BME280;17218;54.070;10.012;2022-11-20T11:03:00;100752.19;;;4.67;100.00
30421;BME280;17218;54.070;10.012;2022-11-20T11:05:39;100758.44;;;4.83;100.00
30421;BME280;17218;54.070;10.012;2022-11-20T11:08:11;100761.13;;;4.87;100.00
30421;BME280;17218;54.070;10.012;2022-11-20T11:10:43;100751.91;;;4.99;100.00
30421;BME280;17218;54.070;10.012;2022-11-20T11:13:19;100746.97;;;5.13;100.00
30421;BME280;17218;54.070;10.012;2022-11-20T11:15:46;100742.03;;;5.27;100.00
30421;BME280;17218;54.070;10.012;2022-11-20T11:18:23;100738.78;;;5.39;100.00
30421;BME280;17218;54.070;10.012;2022-11-20T11:20:50;100751.13;;;5.64;100.00
30421;BME280;17218;54.070;10.012;2022-11-20T11:25:56;100740.19;;;5.80;100.00
30421;BME280;17218;54.070;10.012;2022-11-20T11:28:24;100730.06;;;5.94;100.00
30421;BME280;17218;54.070;10.012;2022-11-20T11:30:54;100729.97;;;5.87;100.00
30421;BME280;17218;54.070;10.012;2022-11-20T11:33:23;100733.25;;;5.75;100.00
30421;BME280;17218;54.070;10.012;2022-11-20T11:35:52;100736.47;;;5.56;100.00
30421;BME280;17218;54.070;10.012;2022-11-20T11:38:29;100736.22;;;5.41;100.00
30421;BME280;17218;54.070;10.012;2022-11-20T11:40:56;100731.59;;;5.16;100.00
30421;BME280;17218;54.070;10.012;2022-11-20T11:43:25;100740.81;;;5.03;100.00
30421;BME280;17218;54.070;10.012;2022-11-20T11:46:28;100729.53;;;4.92;100.00
30421;BME280;17218;54.070;10.012;2022-11-20T11:49:01;100722.75;;;4.97;100.00
30421;BME280;17218;54.070;10.012;2022-11-20T11:51:34;100718.69;;;5.10;100.00
30421;BME280;17218;54.070;10.012;2022-11-20T11:54:14;100722.22;;;5.20;100.00
30421;BME280;17218;54.070;10.012;2022-11-20T11:56:43;100717.16;;;5.23;100.00
30421;BME280;17218;54.070;10.012;2022-11-20T11:59:15;100713.91;;;5.36;100.00
30421;BME280;17218;54.070;10.012;2022-11-20T12:01:46;100697.03;;;5.54;100.00
30421;BME280;17218;54.070;10.012;2022-11-20T12:04:21;100690.34;;;5.67;100.00
30421;BME280;17218;54.070;10.012;2022-11-20T12:06:53;100699.97;;;5.85;100.00
30421;BME280;17218;54.070;10.012;2022-11-20T12:09:34;100700.22;;;6.07;100.00
30421;BME280;17218;54.070;10.012;2022-11-20T12:12:06;100694.13;;;6.96;100.00
30421;BME280;17218;54.070;10.012;2022-11-20T12:14:37;100691.28;;;8.67;100.00
30421;BME280;17218;54.070;10.012;2022-11-20T12:17:05;100688.75;;;10.70;100.00
30421;BME280;17218;54.070;10.012;2022-11-20T12:19:35;100675.78;;;12.75;100.00
30421;BME280;17218;54.070;10.012;2022-11-20T12:22:06;100668.44;;;14.61;84.29
30421;BME280;17218;54.070;10.012;2022-11-20T12:24:52;100663.78;;;15.98;60.28
30421;BME280;17218;54.070;10.012;2022-11-20T12:27:39;100666.16;;;16.87;54.29
30421;BME280;17218;54.070;10.012;2022-11-20T12:30:12;100676.59;;;16.87;48.61
30421;BME280;17218;54.070;10.012;2022-11-20T12:32:58;100671.22;;;16.12;50.69
30421;BME280;17218;54.070;10.012;2022-11-20T12:35:42;100676.66;;;15.13;51.68
30421;BME280;17218;54.070;10.012;2022-11-20T12:38:33;100674.47;;;13.45;52.55
30421;BME280;17218;54.070;10.012;2022-11-20T12:41:12;100675.72;;;12.26;58.29
30421;BME280;17218;54.070;10.012;2022-11-20T12:44:10;100669.16;;;11.29;72.03
30421;BME280;17218;54.070;10.012;2022-11-20T12:47:09;100674.47;;;11.87;88.60
30421;BME280;17218;54.070;10.012;2022-11-20T12:49:47;100660.88;;;13.31;70.69
30421;BME280;17218;54.070;10.012;2022-11-20T12:52:32;100664.47;;;14.07;61.29
30421;BME280;17218;54.070;10.012;2022-11-20T12:55:23;100659.88;;;13.81;58.30